Time;durP1;ratioP1;P1;durP2;ratioP2;P2;SDS_P1;SDS_P2;PMS_P1;PMS_P2;Temp;Humidity;BMP_temperature;BMP_pressure;BME280_temperature;BME280_humidity;BME280_pressure;Samples;Min_cycle;Max_cycle;Signal;HPM_P1;HPM_P2
2024/01/24 00:00:20;;;;;;;3.35;3.13;;;;;;;;;;1046426;28;20028;-20
2024/01/24 00:00:51;;;;;;;4.60;4.28;;;;;;;;;;1047729;28;20024;-19
2024/01/24 00:01:21;;;;;;;14.45;7.40;;;;;;;;;;1047857;28;20460;-20
2024/01/24 00:01:52;;;;;;;6.70;6.07;;;;;;;;;;1047938;28;20907;-20
2024/01/24 00:02:22;;;;;;;4.25;3.95;;;;;;;;;;1047865;28;20042;-18
2024/01/24 00:02:52;;;;;;;6.38;4.88;;;;;;;;;;1047903;28;20020;-20
2024/01/24 00:03:23;;;;;;;17.40;3.75;;;;;;;;;;1047859;28;20373;-17
2024/01/24 00:03:53;;;;;;;5.82;5.40;;;;;;;;;;1047718;28;20028;-19
2024/01/24 00:04:24;;;;;;;4.90;4.05;;;;;;;;;;1047689;28;20404;-19
2024/01/24 00:04:55;;;;;;;1.85;1.75;;;;;;;;;;1047886;28;20578;-20
2024/01/24 00:05:25;;;;;;;5.40;4.70;;;;;;;;;;1047951;28;20567;-21
2024/01/24 00:05:55;;;;;;;8.60;5.68;;;;;;;;;;1047734;28;20031;-17
2024/01/24 00:06:26;;;;;;;6.10;2.20;;;;;;;;;;1047851;28;20032;-21
2024/01/24 00:06:57;;;;;;;3.05;2.70;;;;;;;;;;1047562;28;20012;-19
2024/01/24 00:07:28;;;;;;;2.40;2.20;;;;;;;;;;1047583;28;20028;-20
2024/01/24 00:07:58;;;;;;;4.18;3.83;;;;;;;;;;1047311;28;20024;-20
2024/01/24 00:08:28;;;;;;;7.60;4.15;;;;;;;;;;1047415;28;20017;-20
2024/01/24 00:08:59;;;;;;;7.35;5.22;;;;;;;;;;1047723;28;20024;-20
2024/01/24 00:09:31;;;;;;;5.30;4.80;;;;;;;;;;1047771;28;20111;-20
2024/01/24 00:10:02;;;;;;;3.95;3.65;;;;;;;;;;1047839;28;20024;-19
2024/01/24 00:10:33;;;;;;;15.02;3.65;;;;;;;;;;1047412;28;20028;-19
2024/01/24 00:11:03;;;;;;;7.75;6.97;;;;;;;;;;1047900;28;20031;-19
2024/01/24 00:11:34;;;;;;;4.88;4.50;;;;;;;;;;1047777;28;20055;-19
2024/01/24 00:12:05;;;;;;;7.20;6.63;;;;;;;;;;1047901;28;20028;-19
2024/01/24 00:12:35;;;;;;;7.85;4.43;;;;;;;;;;1046584;28;20396;-20
2024/01/24 00:13:06;;;;;;;10.02;7.43;;;;;;;;;;1047934;28;20075;-18
2024/01/24 00:13:37;;;;;;;4.35;3.95;;;;;;;;;;1047787;28;20920;-19
2024/01/24 00:14:07;;;;;;;10.57;2.53;;;;;;;;;;1047680;28;20034;-21
2024/01/24 00:14:38;;;;;;;5.60;5.07;;;;;;;;;;1047604;28;20423;-19
2024/01/24 00:15:08;;;;;;;1.95;1.85;;;;;;;;;;1047936;28;20077;-22
2024/01/24 00:15:39;;;;;;;9.18;2.85;;;;;;;;;;1046723;28;20025;-22
2024/01/24 00:16:09;;;;;;;1.77;1.67;;;;;;;;;;1047519;28;20499;-20
2024/01/24 00:16:40;;;;;;;3.65;3.35;;;;;;;;;;1047395;28;20094;-22
2024/01/24 00:17:10;;;;;;;7.78;7.18;;;;;;;;;;1047805;28;20573;-21
2024/01/24 00:17:40;;;;;;;4.85;4.10;;;;;;;;;;1047481;28;20751;-23
2024/01/24 00:18:11;;;;;;;5.85;3.70;;;;;;;;;;1047956;28;20028;-22
2024/01/24 00:18:41;;;;;;;4.78;3.47;;;;;;;;;;1047496;28;20062;-21
2024/01/24 00:19:12;;;;;;;4.18;3.80;;;;;;;;;;1047928;28;20024;-22
2024/01/24 00:19:42;;;;;;;2.53;2.33;;;;;;;;;;1047570;28;20111;-21
2024/01/24 00:20:12;;;;;;;8.70;6.15;;;;;;;;;;1048015;28;20028;-23
2024/01/24 00:20:43;;;;;;;16.42;3.78;;;;;;;;;;1047607;28;20020;-21
2024/01/24 00:21:13;;;;;;;7.47;2.72;;;;;;;;;;1047996;28;20032;-22
2024/01/24 00:21:44;;;;;;;4.35;3.90;;;;;;;;;;1047698;28;20779;-22
2024/01/24 00:22:14;;;;;;;4.28;3.97;;;;;;;;;;1048022;28;20056;-23
2024/01/24 00:22:45;;;;;;;12.93;5.82;;;;;;;;;;1047494;28;20035;-23
2024/01/24 00:23:15;;;;;;;1.45;1.45;;;;;;;;;;1047950;28;20048;-23
2024/01/24 00:23:46;;;;;;;2.17;2.05;;;;;;;;;;1047352;28;20020;-22
2024/01/24 00:24:16;;;;;;;3.08;2.88;;;;;;;;;;1047815;28;20025;-20
2024/01/24 00:24:46;;;;;;;6.10;5.63;;;;;;;;;;1047573;28;20016;-21
2024/01/24 00:25:17;;;;;;;5.72;3.33;;;;;;;;;;1047977;28;20027;-21
2024/01/24 00:25:47;;;;;;;9.85;5.88;;;;;;;;;;1047568;28;20017;-23
2024/01/24 00:26:18;;;;;;;2.78;2.35;;;;;;;;;;1047898;28;20107;-23
2024/01/24 00:26:48;;;;;;;4.20;2.58;;;;;;;;;;1047650;28;20032;-21
2024/01/24 00:27:19;;;;;;;2.40;2.28;;;;;;;;;;1048140;28;20460;-22
2024/01/24 00:27:49;;;;;;;4.25;3.55;;;;;;;;;;1046496;28;20472;-22
2024/01/24 00:28:21;;;;;;;4.78;4.38;;;;;;;;;;1046892;28;20426;-23
2024/01/24 00:28:51;;;;;;;1.77;1.67;;;;;;;;;;1046645;28;20127;-20
2024/01/24 00:29:21;;;;;;;5.20;4.80;;;;;;;;;;1047756;28;20482;-22
2024/01/24 00:29:52;;;;;;;4.00;3.75;;;;;;;;;;1047609;28;20032;-21
2024/01/24 00:30:22;;;;;;;1.27;1.10;;;;;;;;;;1047741;28;20395;-21
2024/01/24 00:30:53;;;;;;;2.40;2.28;;;;;;;;;;1047863;28;20465;-20
2024/01/24 00:31:24;;;;;;;12.20;5.18;;;;;;;;;;1047983;28;20027;-21
2024/01/24 00:31:55;;;;;;;6.22;5.05;;;;;;;;;;1047863;28;20037;-23
2024/01/24 00:32:26;;;;;;;8.20;6.18;;;;;;;;;;1047767;28;20410;-20
2024/01/24 00:32:56;;;;;;;5.13;4.75;;;;;;;;;;1047756;28;20059;-23
2024/01/24 00:33:27;;;;;;;1.75;1.70;;;;;;;;;;1047787;28;20018;-23
2024/01/24 00:33:58;;;;;;;10.30;7.20;;;;;;;;;;1047116;28;20035;-21
2024/01/24 00:34:28;;;;;;;2.92;2.75;;;;;;;;;;1046658;28;20422;-21
2024/01/24 00:34:59;;;;;;;1.83;1.73;;;;;;;;;;1047582;28;20415;-20
2024/01/24 00:35:29;;;;;;;7.63;3.60;;;;;;;;;;1047318;28;20484;-21
2024/01/24 00:36:00;;;;;;;4.38;3.97;;;;;;;;;;1047416;28;20440;-21
2024/01/24 00:36:30;;;;;;;2.58;2.30;;;;;;;;;;1047709;28;20525;-22
2024/01/24 00:37:00;;;;;;;2.47;2.38;;;;;;;;;;1047874;28;20476;-23
2024/01/24 00:37:31;;;;;;;1.67;1.58;;;;;;;;;;1047797;28;20016;-22
2024/01/24 00:38:01;;;;;;;4.25;3.67;;;;;;;;;;1047658;28;20016;-21
2024/01/24 00:38:32;;;;;;;7.13;4.05;;;;;;;;;;1047637;28;20052;-23
2024/01/24 00:39:02;;;;;;;14.18;4.20;;;;;;;;;;1047770;28;20024;-21
2024/01/24 00:39:33;;;;;;;2.65;2.45;;;;;;;;;;1047431;28;21159;-21
2024/01/24 00:40:03;;;;;;;7.60;4.00;;;;;;;;;;1047633;28;20415;-22
2024/01/24 00:40:34;;;;;;;5.35;3.88;;;;;;;;;;1047579;28;20021;-21
2024/01/24 00:41:04;;;;;;;2.72;2.53;;;;;;;;;;1047712;28;20067;-21
2024/01/24 00:41:35;;;;;;;9.88;4.05;;;;;;;;;;1047196;28;20026;-22
2024/01/24 00:42:05;;;;;;;3.63;3.42;;;;;;;;;;1046974;28;20455;-21
2024/01/24 00:42:38;;;;;;;4.03;3.65;;;;;;;;;;1046788;28;20020;-22
2024/01/24 00:43:08;;;;;;;5.60;5.10;;;;;;;;;;1046560;28;20556;-22
2024/01/24 00:43:39;;;;;;;13.95;5.97;;;;;;;;;;1047174;28;20032;-20
2024/01/24 00:44:09;;;;;;;6.30;4.03;;;;;;;;;;1047487;28;20028;-21
2024/01/24 00:44:39;;;;;;;1.75;1.65;;;;;;;;;;1047316;28;20020;-22
2024/01/24 00:45:10;;;;;;;14.35;8.50;;;;;;;;;;1047922;28;20024;-22
2024/01/24 00:45:41;;;;;;;1.42;1.42;;;;;;;;;;1047430;28;20453;-21
2024/01/24 00:46:11;;;;;;;3.15;2.58;;;;;;;;;;1047797;28;20032;-21
2024/01/24 00:46:42;;;;;;;7.80;4.13;;;;;;;;;;1047595;28;20042;-20
2024/01/24 00:47:12;;;;;;;6.50;4.43;;;;;;;;;;1046991;28;20058;-21
2024/01/24 00:47:43;;;;;;;36.50;4.70;;;;;;;;;;1046247;28;20017;-23
2024/01/24 00:48:13;;;;;;;3.53;1.88;;;;;;;;;;1047845;28;20432;-21
2024/01/24 00:48:44;;;;;;;13.52;2.80;;;;;;;;;;1048346;28;20027;-21
2024/01/24 00:49:15;;;;;;;10.30;4.15;;;;;;;;;;1048805;28;20484;-22
2024/01/24 00:49:46;;;;;;;1.25;1.17;;;;;;;;;;1048135;28;20024;-21
2024/01/24 00:50:17;;;;;;;16.10;3.25;;;;;;;;;;1048673;28;20020;-22
2024/01/24 00:50:47;;;;;;;4.93;4.47;;;;;;;;;;1047629;28;21370;-22
2024/01/24 00:51:17;;;;;;;4.68;4.22;;;;;;;;;;1048342;28;20049;-21
2024/01/24 00:51:48;;;;;;;1.60;1.35;;;;;;;;;;1046583;28;20016;-22
2024/01/24 00:52:18;;;;;;;7.28;3.05;;;;;;;;;;1048379;28;20404;-21
2024/01/24 00:52:52;;;;;;;2.03;1.88;;;;;;;;;;1047672;28;20488;-22
2024/01/24 00:53:23;;;;;;;8.02;2.75;;;;;;;;;;1047372;28;20033;-22
2024/01/24 00:53:54;;;;;;;3.83;2.35;;;;;;;;;;1048462;28;20021;-21
2024/01/24 00:54:24;;;;;;;4.38;4.00;;;;;;;;;;1048393;28;20342;-21
2024/01/24 00:54:55;;;;;;;3.97;3.60;;;;;;;;;;1047705;28;20021;-21
2024/01/24 00:55:27;;;;;;;1.67;1.58;;;;;;;;;;1048586;28;20056;-22
2024/01/24 00:55:57;;;;;;;3.22;2.67;;;;;;;;;;1048285;28;20020;-21
2024/01/24 00:56:27;;;;;;;1.50;1.50;;;;;;;;;;1048410;28;20101;-23
2024/01/24 00:56:58;;;;;;;4.45;4.22;;;;;;;;;;1048459;28;20115;-23
2024/01/24 00:57:28;;;;;;;4.85;4.32;;;;;;;;;;1048622;28;20025;-22
2024/01/24 00:57:59;;;;;;;4.65;2.28;;;;;;;;;;1048372;28;20020;-21
2024/01/24 00:58:29;;;;;;;2.15;1.88;;;;;;;;;;1048875;28;20024;-23
2024/01/24 00:59:00;;;;;;;4.00;3.30;;;;;;;;;;1048390;28;20052;-20
2024/01/24 00:59:30;;;;;;;2.97;2.70;;;;;;;;;;1048353;28;20035;-22
2024/01/24 01:00:01;;;;;;;1.67;1.58;;;;;;;;;;1047936;28;20028;-23
2024/01/24 01:00:31;;;;;;;8.50;3.85;;;;;;;;;;1048132;28;20024;-22
2024/01/24 01:01:01;;;;;;;5.35;3.00;;;;;;;;;;1048572;28;20070;-21
2024/01/24 01:01:32;;;;;;;3.35;3.10;;;;;;;;;;1048599;28;20423;-21
2024/01/24 01:02:02;;;;;;;4.07;2.63;;;;;;;;;;1048343;28;20508;-21
2024/01/24 01:02:33;;;;;;;1.50;1.42;;;;;;;;;;1048555;28;20029;-22
2024/01/24 01:03:04;;;;;;;2.13;2.03;;;;;;;;;;1048586;28;20029;-21
2024/01/24 01:03:34;;;;;;;1.08;1.08;;;;;;;;;;1047301;28;20025;-21
2024/01/24 01:04:05;;;;;;;16.33;4.00;;;;;;;;;;1047562;28;20025;-22
2024/01/24 01:04:35;;;;;;;4.20;3.28;;;;;;;;;;1046956;28;20472;-23
2024/01/24 01:05:06;;;;;;;5.88;5.35;;;;;;;;;;1048250;28;20052;-21
2024/01/24 01:05:37;;;;;;;2.33;2.17;;;;;;;;;;1048561;28;20051;-21
2024/01/24 01:06:08;;;;;;;6.43;5.85;;;;;;;;;;1048532;28;20112;-22
2024/01/24 01:06:39;;;;;;;7.82;3.78;;;;;;;;;;1048541;28;20035;-22
2024/01/24 01:07:09;;;;;;;4.97;4.53;;;;;;;;;;1048518;28;20029;-21
2024/01/24 01:07:40;;;;;;;6.07;2.20;;;;;;;;;;1048032;28;20036;-21
2024/01/24 01:08:10;;;;;;;1.85;1.75;;;;;;;;;;1048594;28;20074;-21
2024/01/24 01:08:41;;;;;;;4.07;3.30;;;;;;;;;;1048259;28;20058;-22
2024/01/24 01:09:11;;;;;;;2.90;2.50;;;;;;;;;;1048563;28;20028;-20
2024/01/24 01:09:42;;;;;;;3.25;2.97;;;;;;;;;;1048247;28;20036;-21
2024/01/24 01:10:12;;;;;;;4.95;4.63;;;;;;;;;;1048449;28;20400;-22
2024/01/24 01:10:43;;;;;;;3.75;2.30;;;;;;;;;;1047649;28;20058;-21
2024/01/24 01:11:13;;;;;;;2.35;2.25;;;;;;;;;;1048679;28;20024;-21
2024/01/24 01:11:44;;;;;;;3.08;2.83;;;;;;;;;;1048287;28;20103;-21
2024/01/24 01:12:14;;;;;;;3.85;3.47;;;;;;;;;;1048591;28;20123;-20
2024/01/24 01:12:44;;;;;;;1.77;1.67;;;;;;;;;;1048115;28;20030;-19
2024/01/24 01:13:15;;;;;;;6.97;4.75;;;;;;;;;;1048792;28;20034;-18
2024/01/24 01:13:45;;;;;;;3.08;2.90;;;;;;;;;;1047639;28;20035;-21
2024/01/24 01:14:16;;;;;;;5.20;4.72;;;;;;;;;;1048033;28;20025;-19
2024/01/24 01:14:46;;;;;;;1.65;1.55;;;;;;;;;;1048106;28;20023;-21
2024/01/24 01:15:17;;;;;;;1.65;1.45;;;;;;;;;;1048148;28;20077;-18
2024/01/24 01:15:47;;;;;;;6.07;4.65;;;;;;;;;;1047332;28;20020;-17
2024/01/24 01:16:18;;;;;;;6.25;2.67;;;;;;;;;;1048423;28;20559;-19
2024/01/24 01:16:48;;;;;;;2.40;2.10;;;;;;;;;;1047870;28;20476;-20
2024/01/24 01:17:19;;;;;;;3.45;3.15;;;;;;;;;;1048464;28;20115;-20
2024/01/24 01:17:49;;;;;;;1.90;1.80;;;;;;;;;;1047841;28;20052;-19
2024/01/24 01:18:19;;;;;;;2.50;2.40;;;;;;;;;;1047463;28;20031;-18
2024/01/24 01:18:50;;;;;;;2.08;1.98;;;;;;;;;;1048048;28;20020;-20
2024/01/24 01:19:20;;;;;;;5.15;4.72;;;;;;;;;;1048136;28;20020;-19
2024/01/24 01:19:51;;;;;;;11.63;4.60;;;;;;;;;;1048035;28;20479;-20
2024/01/24 01:20:21;;;;;;;12.15;4.55;;;;;;;;;;1048264;28;20032;-20
2024/01/24 01:20:52;;;;;;;2.78;1.25;;;;;;;;;;1048020;28;20024;-21
2024/01/24 01:21:22;;;;;;;2.53;2.35;;;;;;;;;;1047978;28;20048;-20
2024/01/24 01:21:53;;;;;;;1.77;1.67;;;;;;;;;;1047966;28;20051;-19
2024/01/24 01:22:23;;;;;;;6.05;5.45;;;;;;;;;;1048095;28;20050;-19
2024/01/24 01:22:54;;;;;;;1.92;1.83;;;;;;;;;;1047915;28;20033;-18
2024/01/24 01:23:24;;;;;;;1.73;1.63;;;;;;;;;;1048199;28;20031;-20
2024/01/24 01:23:54;;;;;;;5.60;4.32;;;;;;;;;;1046744;28;20039;-21
2024/01/24 01:24:25;;;;;;;6.32;4.38;;;;;;;;;;1046888;28;20031;-19
2024/01/24 01:24:56;;;;;;;2.80;1.92;;;;;;;;;;1047617;28;20020;-17
2024/01/24 01:25:26;;;;;;;5.95;4.18;;;;;;;;;;1047566;28;20507;-18
2024/01/24 01:25:57;;;;;;;1.70;1.60;;;;;;;;;;1047501;28;20059;-20
2024/01/24 01:26:27;;;;;;;3.95;3.67;;;;;;;;;;1047682;28;20032;-18
2024/01/24 01:26:58;;;;;;;2.00;1.88;;;;;;;;;;1046927;28;20033;-17
2024/01/24 01:27:28;;;;;;;11.20;2.22;;;;;;;;;;1047064;28;20055;-18
2024/01/24 01:27:59;;;;;;;5.75;3.30;;;;;;;;;;1047863;28;20029;-20
2024/01/24 01:28:29;;;;;;;3.35;3.15;;;;;;;;;;1046596;28;20025;-20
2024/01/24 01:29:00;;;;;;;6.57;2.67;;;;;;;;;;1047778;28;20115;-20
2024/01/24 01:29:30;;;;;;;2.08;1.90;;;;;;;;;;1045988;28;20074;-20
2024/01/24 01:30:01;;;;;;;3.75;3.08;;;;;;;;;;1047443;28;20529;-18
2024/01/24 01:30:31;;;;;;;1.60;1.50;;;;;;;;;;1045887;28;20029;-20
2024/01/24 01:31:02;;;;;;;1.30;1.23;;;;;;;;;;1047237;28;20016;-21
2024/01/24 01:31:32;;;;;;;3.17;2.97;;;;;;;;;;1047138;28;20027;-19
2024/01/24 01:32:03;;;;;;;4.32;3.95;;;;;;;;;;1046994;28;20028;-20
2024/01/24 01:32:33;;;;;;;2.38;2.28;;;;;;;;;;1047880;28;20051;-19
2024/01/24 01:33:04;;;;;;;1.75;1.65;;;;;;;;;;1047154;28;20031;-20
2024/01/24 01:33:34;;;;;;;1.23;1.17;;;;;;;;;;1047531;28;20024;-19
2024/01/24 01:34:05;;;;;;;1.88;1.77;;;;;;;;;;1046919;28;20052;-19
2024/01/24 01:34:35;;;;;;;11.00;7.93;;;;;;;;;;1045850;28;20111;-19
2024/01/24 01:35:06;;;;;;;7.03;5.78;;;;;;;;;;1046966;28;20024;-19
2024/01/24 01:35:37;;;;;;;4.45;4.05;;;;;;;;;;1047314;28;20064;-20
2024/01/24 01:36:07;;;;;;;1.83;1.73;;;;;;;;;;1046894;28;20029;-18
2024/01/24 01:36:38;;;;;;;7.53;2.10;;;;;;;;;;1048038;28;20024;-18
2024/01/24 01:37:08;;;;;;;3.25;3.03;;;;;;;;;;1047183;28;20473;-20
2024/01/24 01:37:39;;;;;;;1.60;1.38;;;;;;;;;;1047636;28;20462;-19
2024/01/24 01:38:09;;;;;;;0.95;0.95;;;;;;;;;;1047271;28;20368;-20
2024/01/24 01:38:40;;;;;;;8.43;3.92;;;;;;;;;;1047832;28;20042;-21
2024/01/24 01:39:10;;;;;;;9.57;4.22;;;;;;;;;;1047383;28;20399;-19
2024/01/24 01:39:41;;;;;;;1.55;1.48;;;;;;;;;;1047732;28;20028;-19
2024/01/24 01:40:11;;;;;;;6.45;1.98;;;;;;;;;;1046934;28;20023;-19
2024/01/24 01:40:42;;;;;;;9.60;6.18;;;;;;;;;;1047941;28;20032;-20
2024/01/24 01:41:12;;;;;;;1.90;1.80;;;;;;;;;;1046367;28;20126;-21
2024/01/24 01:41:46;;;;;;;4.90;4.25;;;;;;;;;;1047586;28;20024;-21
2024/01/24 01:42:16;;;;;;;3.65;3.33;;;;;;;;;;1046609;28;20021;-19
2024/01/24 01:42:47;;;;;;;2.15;1.98;;;;;;;;;;1047679;28;20024;-18
2024/01/24 01:43:17;;;;;;;5.15;2.92;;;;;;;;;;1047383;28;20101;-18
2024/01/24 01:43:48;;;;;;;5.70;4.70;;;;;;;;;;1047723;28;20024;-20
2024/01/24 01:44:18;;;;;;;2.83;2.22;;;;;;;;;;1047071;28;20020;-18
2024/01/24 01:44:49;;;;;;;7.95;2.53;;;;;;;;;;1047965;28;20043;-19
2024/01/24 01:45:19;;;;;;;4.20;3.90;;;;;;;;;;1047381;28;20029;-19
2024/01/24 01:45:54;;;;;;;3.08;2.78;;;;;;;;;;1046884;28;20138;-20
2024/01/24 01:46:27;;;;;;;4.35;2.13;;;;;;;;;;1046865;28;20093;-21
2024/01/24 01:46:58;;;;;;;5.15;4.38;;;;;;;;;;1046287;28;20024;-20
2024/01/24 01:47:28;;;;;;;8.88;4.25;;;;;;;;;;1045212;28;20040;-20
2024/01/24 01:47:59;;;;;;;8.75;2.17;;;;;;;;;;1048086;28;20025;-21
2024/01/24 01:48:30;;;;;;;2.67;2.50;;;;;;;;;;1044874;28;20053;-20
2024/01/24 01:49:00;;;;;;;2.22;2.08;;;;;;;;;;1046850;28;20427;-18
2024/01/24 01:49:31;;;;;;;15.35;4.30;;;;;;;;;;1046100;28;20021;-20
2024/01/24 01:50:01;;;;;;;9.45;2.95;;;;;;;;;;1047483;28;20025;-20
2024/01/24 01:50:32;;;;;;;3.55;3.25;;;;;;;;;;1047014;28;20389;-19
2024/01/24 01:51:03;;;;;;;4.00;3.13;;;;;;;;;;1047602;28;20032;-20
2024/01/24 01:51:33;;;;;;;6.93;5.75;;;;;;;;;;1047947;28;20161;-21
2024/01/24 01:52:05;;;;;;;10.98;4.13;;;;;;;;;;1047159;28;20107;-20
2024/01/24 01:52:36;;;;;;;9.27;5.50;;;;;;;;;;1046616;28;20024;-19
2024/01/24 01:53:07;;;;;;;3.88;2.72;;;;;;;;;;1046984;28;20081;-21
2024/01/24 01:53:38;;;;;;;5.15;4.75;;;;;;;;;;1047929;28;20082;-20
2024/01/24 01:54:09;;;;;;;10.10;5.95;;;;;;;;;;1046945;28;20028;-19
2024/01/24 01:54:40;;;;;;;9.38;7.35;;;;;;;;;;1047993;28;20384;-20
2024/01/24 01:55:12;;;;;;;8.50;3.95;;;;;;;;;;1047203;28;20031;-19
2024/01/24 01:55:42;;;;;;;3.45;3.22;;;;;;;;;;1046450;28;20028;-21
2024/01/24 01:56:15;;;;;;;4.55;3.67;;;;;;;;;;1045846;28;20060;-20
2024/01/24 01:56:46;;;;;;;6.75;4.68;;;;;;;;;;1047465;28;20028;-23
2024/01/24 01:57:16;;;;;;;11.70;4.18;;;;;;;;;;1046037;28;20035;-22
2024/01/24 01:57:47;;;;;;;10.93;5.43;;;;;;;;;;1047474;28;20417;-22
2024/01/24 01:58:18;;;;;;;22.10;5.95;;;;;;;;;;1046145;28;20028;-19
2024/01/24 01:58:49;;;;;;;10.00;4.05;;;;;;;;;;1047761;28;20032;-22
2024/01/24 01:59:20;;;;;;;17.27;9.25;;;;;;;;;;1046589;28;20021;-21
2024/01/24 01:59:51;;;;;;;17.95;8.85;;;;;;;;;;1046633;28;20543;-22
2024/01/24 02:00:21;;;;;;;27.63;12.60;;;;;;;;;;1046133;28;20033;-23
2024/01/24 02:00:52;;;;;;;16.88;7.97;;;;;;;;;;1046326;28;20086;-22
2024/01/24 02:01:23;;;;;;;31.90;16.30;;;;;;;;;;1046546;28;20029;-23
2024/01/24 02:01:57;;;;;;;49.65;14.98;;;;;;;;;;1047601;28;20090;-23
2024/01/24 02:02:27;;;;;;;27.48;9.23;;;;;;;;;;1046574;28;20063;-20
2024/01/24 02:02:58;;;;;;;27.73;12.57;;;;;;;;;;1047922;28;20165;-23
2024/01/24 02:03:28;;;;;;;25.85;10.30;;;;;;;;;;1045781;28;20025;-23
2024/01/24 02:03:59;;;;;;;14.68;10.48;;;;;;;;;;1047700;28;20025;-22
2024/01/24 02:04:30;;;;;;;14.95;7.53;;;;;;;;;;1046290;28;20033;-19
2024/01/24 02:05:00;;;;;;;22.80;13.30;;;;;;;;;;1047464;28;20434;-21
2024/01/24 02:05:31;;;;;;;44.70;17.63;;;;;;;;;;1042024;28;20070;-21
2024/01/24 02:06:03;;;;;;;26.92;10.32;;;;;;;;;;1047171;28;20514;-23
2024/01/24 02:06:33;;;;;;;36.80;11.40;;;;;;;;;;1045760;28;20034;-21
2024/01/24 02:07:05;;;;;;;17.35;10.77;;;;;;;;;;1046735;28;20027;-22
2024/01/24 02:07:35;;;;;;;28.70;9.75;;;;;;;;;;1045868;28;20024;-20
2024/01/24 02:08:07;;;;;;;23.00;12.48;;;;;;;;;;1045730;28;20028;-21
2024/01/24 02:08:39;;;;;;;30.70;12.27;;;;;;;;;;1047058;28;20078;-22
2024/01/24 02:09:11;;;;;;;15.70;7.88;;;;;;;;;;1046023;28;20492;-22
2024/01/24 02:09:42;;;;;;;14.35;10.07;;;;;;;;;;1047183;28;20040;-22
2024/01/24 02:10:14;;;;;;;21.13;14.27;;;;;;;;;;1047110;28;20024;-23
2024/01/24 02:10:44;;;;;;;26.92;12.68;;;;;;;;;;1047082;28;20074;-23
2024/01/24 02:11:15;;;;;;;24.95;11.57;;;;;;;;;;1044921;28;20405;-21
2024/01/24 02:11:45;;;;;;;38.17;14.38;;;;;;;;;;1046078;28;20027;-23
2024/01/24 02:12:16;;;;;;;12.90;8.32;;;;;;;;;;1046987;28;20032;-22
2024/01/24 02:12:46;;;;;;;15.43;10.20;;;;;;;;;;1046480;28;20013;-21
2024/01/24 02:13:16;;;;;;;15.13;6.85;;;;;;;;;;1047754;28;20037;-22
2024/01/24 02:13:47;;;;;;;6.70;4.07;;;;;;;;;;1047205;28;20035;-20
2024/01/24 02:14:17;;;;;;;19.20;10.20;;;;;;;;;;1046706;28;20078;-22
2024/01/24 02:14:48;;;;;;;8.50;4.95;;;;;;;;;;1046141;28;20028;-22
2024/01/24 02:15:18;;;;;;;23.98;9.30;;;;;;;;;;1045812;28;20681;-21
2024/01/24 02:15:49;;;;;;;15.57;8.15;;;;;;;;;;1046229;28;20573;-21
2024/01/24 02:16:19;;;;;;;8.30;5.85;;;;;;;;;;1047971;28;20078;-22
2024/01/24 02:16:50;;;;;;;16.00;7.90;;;;;;;;;;1047347;28;20031;-21
2024/01/24 02:17:20;;;;;;;9.98;5.88;;;;;;;;;;1046006;28;20048;-22
2024/01/24 02:17:51;;;;;;;14.93;6.72;;;;;;;;;;1045511;28;20035;-22
2024/01/24 02:18:21;;;;;;;8.20;6.88;;;;;;;;;;1046618;28;20033;-23
2024/01/24 02:18:52;;;;;;;16.00;10.10;;;;;;;;;;1047180;28;20031;-20
2024/01/24 02:19:22;;;;;;;8.40;4.82;;;;;;;;;;1047199;28;20028;-21
2024/01/24 02:19:52;;;;;;;9.73;4.50;;;;;;;;;;1047420;28;20036;-22
2024/01/24 02:20:23;;;;;;;7.38;6.63;;;;;;;;;;1046748;28;20059;-21
2024/01/24 02:20:54;;;;;;;10.98;3.65;;;;;;;;;;1046613;28;20492;-21
2024/01/24 02:21:25;;;;;;;17.70;6.20;;;;;;;;;;1044292;28;20028;-21
2024/01/24 02:21:55;;;;;;;18.42;9.10;;;;;;;;;;1047734;28;20032;-22
2024/01/24 02:22:26;;;;;;;7.60;5.32;;;;;;;;;;1047771;28;20059;-23
2024/01/24 02:22:57;;;;;;;15.65;4.95;;;;;;;;;;1047394;28;20024;-23
2024/01/24 02:23:27;;;;;;;2.55;2.42;;;;;;;;;;1047590;28;20017;-23
2024/01/24 02:23:58;;;;;;;4.45;3.45;;;;;;;;;;1047294;28;20020;-23
2024/01/24 02:24:29;;;;;;;10.90;6.10;;;;;;;;;;1045247;28;20028;-21
2024/01/24 02:24:59;;;;;;;4.25;3.70;;;;;;;;;;1043736;28;20127;-22
2024/01/24 02:25:30;;;;;;;8.23;4.47;;;;;;;;;;1045922;28;20086;-22
2024/01/24 02:26:04;;;;;;;12.90;5.53;;;;;;;;;;1044157;28;20028;-22
2024/01/24 02:26:34;;;;;;;4.78;4.28;;;;;;;;;;1044163;28;20572;-21
2024/01/24 02:27:05;;;;;;;13.93;4.82;;;;;;;;;;1043213;28;20029;-23
2024/01/24 02:27:35;;;;;;;5.35;4.38;;;;;;;;;;1043775;28;20035;-23
2024/01/24 02:28:06;;;;;;;8.25;7.00;;;;;;;;;;1045819;28;20032;-22
2024/01/24 02:28:36;;;;;;;5.82;4.28;;;;;;;;;;1045585;28;20020;-22
2024/01/24 02:29:07;;;;;;;6.63;4.95;;;;;;;;;;1045749;28;20567;-23
2024/01/24 02:29:37;;;;;;;6.05;5.20;;;;;;;;;;1045634;28;20123;-22
2024/01/24 02:30:08;;;;;;;3.08;2.85;;;;;;;;;;1045344;28;20558;-20
2024/01/24 02:30:39;;;;;;;5.20;4.28;;;;;;;;;;1046156;28;20024;-21
2024/01/24 02:31:09;;;;;;;8.45;6.15;;;;;;;;;;1045125;28;20056;-22
2024/01/24 02:31:40;;;;;;;4.32;3.45;;;;;;;;;;1045871;28;20056;-23
2024/01/24 02:32:10;;;;;;;11.80;6.70;;;;;;;;;;1045616;28;20028;-21
2024/01/24 02:32:41;;;;;;;4.40;3.95;;;;;;;;;;1045904;28;20048;-19
2024/01/24 02:33:11;;;;;;;18.63;5.18;;;;;;;;;;1045522;28;20144;-21
2024/01/24 02:33:42;;;;;;;7.45;4.95;;;;;;;;;;1047136;28;20400;-21
2024/01/24 02:34:13;;;;;;;15.43;6.97;;;;;;;;;;1041863;28;20025;-22
2024/01/24 02:34:44;;;;;;;3.97;3.63;;;;;;;;;;1040233;28;20032;-21
2024/01/24 02:35:14;;;;;;;4.82;3.78;;;;;;;;;;1042064;28;20399;-21
2024/01/24 02:35:45;;;;;;;10.93;7.05;;;;;;;;;;1041248;28;20542;-22
2024/01/24 02:36:16;;;;;;;5.45;4.93;;;;;;;;;;1044442;28;20044;-22
2024/01/24 02:36:47;;;;;;;5.15;4.53;;;;;;;;;;1045987;28;20565;-20
2024/01/24 02:37:19;;;;;;;8.52;5.25;;;;;;;;;;1047513;28;20025;-22
2024/01/24 02:37:50;;;;;;;14.23;8.68;;;;;;;;;;1046283;28;20228;-19
2024/01/24 02:38:20;;;;;;;19.25;10.15;;;;;;;;;;1047493;28;20495;-23
2024/01/24 02:38:51;;;;;;;13.10;8.13;;;;;;;;;;1047197;28;20468;-21
2024/01/24 02:39:22;;;;;;;11.65;5.90;;;;;;;;;;1046978;28;20662;-21
2024/01/24 02:39:52;;;;;;;18.52;8.35;;;;;;;;;;1047667;28;20609;-20
2024/01/24 02:40:22;;;;;;;28.23;9.82;;;;;;;;;;1047251;28;20024;-21
2024/01/24 02:40:53;;;;;;;24.63;10.15;;;;;;;;;;1047542;28;20489;-21
2024/01/24 02:41:23;;;;;;;26.02;11.07;;;;;;;;;;1047008;28;20388;-21
2024/01/24 02:41:54;;;;;;;6.43;5.05;;;;;;;;;;1046518;28;20545;-23
2024/01/24 02:42:25;;;;;;;6.97;5.93;;;;;;;;;;1046988;28;20820;-21
2024/01/24 02:42:55;;;;;;;9.15;4.88;;;;;;;;;;1046570;28;20025;-21
2024/01/24 02:43:26;;;;;;;14.85;7.13;;;;;;;;;;1046836;28;20388;-21
2024/01/24 02:43:56;;;;;;;7.65;4.88;;;;;;;;;;1046980;28;20059;-22
2024/01/24 02:44:27;;;;;;;11.70;7.80;;;;;;;;;;1045605;28;20035;-23
2024/01/24 02:44:57;;;;;;;21.20;9.45;;;;;;;;;;1047741;28;20028;-22
2024/01/24 02:45:28;;;;;;;8.57;7.38;;;;;;;;;;1045644;28;20054;-21
2024/01/24 02:45:59;;;;;;;6.72;6.07;;;;;;;;;;1046834;28;20375;-22
2024/01/24 02:46:29;;;;;;;27.10;9.23;;;;;;;;;;1046572;28;20020;-20
2024/01/24 02:47:00;;;;;;;11.57;8.35;;;;;;;;;;1044777;28;20024;-21
2024/01/24 02:47:31;;;;;;;20.80;13.73;;;;;;;;;;1047577;28;20028;-21
2024/01/24 02:48:01;;;;;;;23.00;11.82;;;;;;;;;;1046350;28;20044;-21
2024/01/24 02:48:32;;;;;;;21.77;9.13;;;;;;;;;;1046853;28;20096;-23
2024/01/24 02:49:03;;;;;;;13.13;7.47;;;;;;;;;;1046358;28;20063;-23
2024/01/24 02:49:35;;;;;;;6.70;5.85;;;;;;;;;;1047041;28;20021;-20
2024/01/24 02:50:07;;;;;;;15.25;9.13;;;;;;;;;;1043667;28;20063;-20
2024/01/24 02:50:38;;;;;;;24.98;10.05;;;;;;;;;;1046101;28;20024;-21
2024/01/24 02:51:08;;;;;;;15.60;9.75;;;;;;;;;;1046515;28;20458;-21
2024/01/24 02:51:39;;;;;;;18.83;10.35;;;;;;;;;;1046645;28;20024;-22
2024/01/24 02:52:09;;;;;;;15.15;13.48;;;;;;;;;;1045932;28;20081;-23
2024/01/24 02:52:40;;;;;;;12.85;8.73;;;;;;;;;;1044513;28;20501;-19
2024/01/24 02:53:10;;;;;;;15.90;8.40;;;;;;;;;;1046137;28;20035;-22
2024/01/24 02:53:41;;;;;;;13.95;9.77;;;;;;;;;;1044117;28;20992;-21
2024/01/24 02:54:11;;;;;;;11.98;4.95;;;;;;;;;;1047542;28;20028;-21
2024/01/24 02:54:42;;;;;;;6.18;5.63;;;;;;;;;;1047098;28;20032;-21
2024/01/24 02:55:16;;;;;;;12.18;8.40;;;;;;;;;;1046491;28;20494;-22
2024/01/24 02:55:47;;;;;;;17.92;9.68;;;;;;;;;;1046929;28;20059;-22
2024/01/24 02:56:17;;;;;;;9.07;5.68;;;;;;;;;;1045133;28;20028;-22
2024/01/24 02:56:48;;;;;;;6.43;5.40;;;;;;;;;;1045001;28;20523;-21
2024/01/24 02:57:19;;;;;;;4.50;3.97;;;;;;;;;;1046337;28;20036;-20
2024/01/24 02:57:49;;;;;;;3.33;3.03;;;;;;;;;;1045777;28;20020;-22
2024/01/24 02:58:20;;;;;;;11.85;6.82;;;;;;;;;;1044556;28;20036;-20
2024/01/24 02:58:50;;;;;;;27.85;6.95;;;;;;;;;;1046549;28;20016;-22
2024/01/24 02:59:21;;;;;;;29.05;10.57;;;;;;;;;;1046517;28;20165;-22
2024/01/24 02:59:51;;;;;;;17.02;9.88;;;;;;;;;;1047321;28;20024;-21
2024/01/24 03:00:22;;;;;;;14.45;7.45;;;;;;;;;;1046119;28;20028;-21
2024/01/24 03:00:52;;;;;;;13.07;8.13;;;;;;;;;;1046779;28;20031;-22
2024/01/24 03:01:23;;;;;;;7.88;5.55;;;;;;;;;;1046635;28;20021;-21
2024/01/24 03:02:02;;;;;;;13.43;7.10;;;;;;;;;;1045910;28;20032;-21
2024/01/24 03:02:34;;;;;;;7.22;3.75;;;;;;;;;;1045239;28;20121;-23
2024/01/24 03:03:05;;;;;;;3.33;2.65;;;;;;;;;;1046018;28;20117;-22